createdAt,value
2023-01-22T00:01:50.217Z,6.70
2023-01-22T00:04:52.243Z,6.72
2023-01-22T00:07:54.193Z,6.82
2023-01-22T00:10:56.888Z,6.78
2023-01-22T00:13:58.859Z,6.60
2023-01-22T00:17:00.882Z,8.45
2023-01-22T00:20:02.955Z,7.55
2023-01-22T00:23:05.007Z,7.23
2023-01-22T00:26:11.050Z,7.30
2023-01-22T00:29:13.251Z,6.47
2023-01-22T00:32:15.359Z,6.10
2023-01-22T00:35:17.476Z,5.95
2023-01-22T00:38:20.733Z,6.07
2023-01-22T00:41:22.732Z,7.07
2023-01-22T00:44:24.861Z,6.05
2023-01-22T00:47:26.835Z,7.88
2023-01-22T00:50:28.962Z,7.38
2023-01-22T00:53:30.989Z,6.83
2023-01-22T00:56:33.149Z,6.97
2023-01-22T00:59:35.296Z,7.03
2023-01-22T01:03:00.132Z,6.70
2023-01-22T01:06:05.147Z,6.68
2023-01-22T01:09:07.152Z,6.78
2023-01-22T01:12:10.814Z,5.32
2023-01-22T01:15:12.856Z,7.35
2023-01-22T01:18:14.966Z,5.63
2023-01-22T01:21:18.102Z,6.65
2023-01-22T01:24:20.182Z,6.80
2023-01-22T01:27:23.006Z,6.55
2023-01-22T01:30:26.187Z,7.00
2023-01-22T01:33:28.234Z,7.13
2023-01-22T01:36:47.734Z,6.40
2023-01-22T01:39:52.680Z,6.32
2023-01-22T01:42:54.724Z,7.65
2023-01-22T01:45:57.967Z,7.45
2023-01-22T01:48:59.963Z,7.72
2023-01-22T01:52:04.564Z,7.63
2023-01-22T01:55:06.897Z,7.03
2023-01-22T01:58:11.302Z,7.43
2023-01-22T02:01:17.419Z,6.00
2023-01-22T02:04:19.685Z,5.23
2023-01-22T02:07:21.693Z,5.93
2023-01-22T02:10:25.269Z,6.22
2023-01-22T02:13:29.078Z,7.05
2023-01-22T02:16:31.413Z,6.90
2023-01-22T02:19:33.486Z,5.38
2023-01-22T02:22:37.456Z,6.25
2023-01-22T02:25:39.493Z,5.73
2023-01-22T02:28:41.584Z,6.07
2023-01-22T02:31:44.095Z,4.45
2023-01-22T02:34:46.298Z,6.47
2023-01-22T02:37:48.405Z,5.93
2023-01-22T02:40:50.426Z,7.03
2023-01-22T02:43:55.046Z,6.15
2023-01-22T02:46:59.464Z,6.50
2023-01-22T02:50:02.766Z,6.47
2023-01-22T02:53:05.494Z,7.47
2023-01-22T02:56:08.587Z,5.60
2023-01-22T02:59:10.602Z,6.63
2023-01-22T03:02:13.138Z,6.15
2023-01-22T03:05:15.802Z,6.30
2023-01-22T03:08:18.490Z,6.05
2023-01-22T03:11:20.717Z,5.78
2023-01-22T03:14:43.066Z,6.13
2023-01-22T03:18:04.128Z,6.22
2023-01-22T03:21:21.244Z,6.30
2023-01-22T03:24:23.308Z,6.65
2023-01-22T03:27:26.638Z,5.33
2023-01-22T03:30:29.474Z,5.95
2023-01-22T03:33:32.071Z,5.85
2023-01-22T03:36:34.601Z,5.73
2023-01-22T03:39:40.453Z,5.28
2023-01-22T03:42:42.792Z,7.70
2023-01-22T03:45:45.297Z,6.00
2023-01-22T03:48:51.356Z,6.07
2023-01-22T03:51:53.410Z,5.65
2023-01-22T03:54:55.477Z,5.65
2023-01-22T03:57:57.545Z,5.13
2023-01-22T04:01:06.728Z,7.20
2023-01-22T04:04:09.301Z,5.65
2023-01-22T04:07:11.381Z,6.37
2023-01-22T04:10:15.039Z,5.80
2023-01-22T04:13:17.177Z,6.10
2023-01-22T04:16:21.120Z,6.00
2023-01-22T04:19:41.849Z,6.40
2023-01-22T04:23:02.360Z,6.93
2023-01-22T04:26:04.681Z,6.78
2023-01-22T04:29:06.748Z,5.90
2023-01-22T04:32:10.241Z,9.50
2023-01-22T04:35:25.498Z,6.75
2023-01-22T04:38:32.786Z,9.13
2023-01-22T04:41:34.880Z,7.18
2023-01-22T04:44:37.235Z,5.93
2023-01-22T04:47:46.653Z,7.78
2023-01-22T04:50:51.770Z,8.10
2023-01-22T04:53:53.994Z,7.72
2023-01-22T04:56:56.098Z,7.10
2023-01-22T04:59:58.155Z,6.77
2023-01-22T05:03:00.832Z,7.38
2023-01-22T05:06:04.966Z,10.60
2023-01-22T05:09:09.554Z,18.90
2023-01-22T05:12:25.603Z,16.73
2023-01-22T05:15:29.452Z,23.42
2023-01-22T05:18:35.167Z,12.45
2023-01-22T05:21:37.404Z,8.23
2023-01-22T05:24:41.114Z,6.95
2023-01-22T05:27:43.768Z,7.47
2023-01-22T05:30:50.854Z,6.77
2023-01-22T05:34:05.357Z,7.88
2023-01-22T05:37:07.422Z,8.80
2023-01-22T05:40:10.787Z,10.20
2023-01-22T05:43:12.841Z,8.88
2023-01-22T05:46:19.216Z,8.25
2023-01-22T05:49:40.039Z,8.30
2023-01-22T05:52:44.805Z,8.50
2023-01-22T05:55:47.728Z,9.18
2023-01-22T05:58:50.446Z,8.52
2023-01-22T06:01:53.434Z,8.63
2023-01-22T06:04:55.472Z,9.13
2023-01-22T06:08:00.796Z,7.15
2023-01-22T06:11:11.312Z,7.47
2023-01-22T06:14:13.368Z,6.95
2023-01-22T06:17:15.418Z,8.73
2023-01-22T06:20:23.308Z,10.27
2023-01-22T06:23:27.120Z,10.15
2023-01-22T06:26:29.165Z,10.82
2023-01-22T06:29:31.326Z,10.57
2023-01-22T06:32:33.350Z,10.17
2023-01-22T06:35:35.703Z,10.30
2023-01-22T06:38:37.834Z,8.70
2023-01-22T06:41:41.494Z,8.33
2023-01-22T06:44:46.429Z,8.27
2023-01-22T06:47:48.603Z,8.57
2023-01-22T06:50:50.902Z,9.07
2023-01-22T06:53:52.988Z,7.03
2023-01-22T06:56:55.861Z,8.13
2023-01-22T06:59:59.476Z,8.80
2023-01-22T07:03:05.793Z,8.30
2023-01-22T07:06:09.216Z,7.85
2023-01-22T07:09:11.194Z,7.72
2023-01-22T07:12:13.178Z,8.83
2023-01-22T07:15:15.201Z,9.68
2023-01-22T07:18:19.972Z,11.07
2023-01-22T07:21:22.038Z,12.32
2023-01-22T07:24:24.085Z,12.98
2023-01-22T07:27:26.150Z,10.75
2023-01-22T07:30:28.497Z,12.23
2023-01-22T07:33:30.507Z,9.53
2023-01-22T07:36:32.553Z,9.85
2023-01-22T07:39:35.513Z,9.10
2023-01-22T07:42:38.785Z,10.67
2023-01-22T07:45:40.904Z,8.93
2023-01-22T07:48:44.953Z,7.78
2023-01-22T07:51:47.882Z,9.05
2023-01-22T07:54:49.971Z,10.50
2023-01-22T07:58:03.691Z,11.82
2023-01-22T08:01:07.027Z,12.48
2023-01-22T08:04:09.045Z,10.87
2023-01-22T08:07:19.889Z,14.23
2023-01-22T08:10:22.040Z,8.35
2023-01-22T08:13:24.083Z,10.10
2023-01-22T08:16:26.108Z,11.38
2023-01-22T08:19:29.611Z,11.27
2023-01-22T08:22:31.790Z,24.83
2023-01-22T08:25:33.886Z,28.70
2023-01-22T08:28:36.327Z,23.23
2023-01-22T08:31:38.379Z,16.92
2023-01-22T08:34:40.543Z,10.37
2023-01-22T08:37:44.119Z,10.07
2023-01-22T08:40:52.735Z,8.93
2023-01-22T08:43:54.867Z,9.73
2023-01-22T08:46:57.117Z,9.95
2023-01-22T08:49:59.170Z,10.15
2023-01-22T08:53:01.161Z,13.57
2023-01-22T08:56:03.352Z,12.77
2023-01-22T08:59:06.817Z,21.95
2023-01-22T09:02:12.208Z,11.52
2023-01-22T09:05:14.197Z,9.10
2023-01-22T09:08:16.309Z,9.10
2023-01-22T09:11:18.313Z,7.65
2023-01-22T09:14:20.311Z,9.03
2023-01-22T09:17:22.334Z,8.38
2023-01-22T09:20:24.321Z,9.57
2023-01-22T09:23:26.349Z,8.70
2023-01-22T09:26:28.485Z,9.95
2023-01-22T09:29:30.477Z,9.68
2023-01-22T09:32:32.513Z,9.88
2023-01-22T09:35:34.517Z,10.90
2023-01-22T09:38:36.518Z,17.42
2023-01-22T09:41:43.145Z,13.15
2023-01-22T09:44:48.251Z,10.97
2023-01-22T09:47:53.445Z,10.43
2023-01-22T09:50:55.547Z,10.70
2023-01-22T09:53:58.601Z,10.75
2023-01-22T09:57:02.931Z,10.63
2023-01-22T10:00:13.568Z,10.00
2023-01-22T10:03:22.775Z,12.95
2023-01-22T10:06:25.261Z,15.00
2023-01-22T10:09:30.573Z,17.10
2023-01-22T10:12:32.663Z,11.02
2023-01-22T10:15:34.702Z,10.70
2023-01-22T10:18:37.644Z,11.02
2023-01-22T10:21:44.478Z,10.82
2023-01-22T10:24:46.453Z,13.18
2023-01-22T10:27:56.366Z,11.13
2023-01-22T10:30:59.101Z,11.90
2023-01-22T10:34:02.902Z,14.85
2023-01-22T10:37:15.232Z,18.23
2023-01-22T10:40:21.116Z,18.70
2023-01-22T10:43:31.704Z,10.05
2023-01-22T10:46:33.969Z,13.90
2023-01-22T10:49:36.073Z,25.00
2023-01-22T10:52:41.315Z,16.10
2023-01-22T10:55:43.411Z,23.92
2023-01-22T10:58:48.073Z,11.32
2023-01-22T11:01:56.365Z,11.82
2023-01-22T11:05:07.007Z,12.32
2023-01-22T11:08:14.885Z,10.33
2023-01-22T11:11:18.968Z,10.50
2023-01-22T11:14:27.402Z,11.70
2023-01-22T11:17:32.672Z,12.70
2023-01-22T11:20:37.689Z,12.73
2023-01-22T11:23:46.344Z,12.77
2023-01-22T11:26:55.864Z,11.77
2023-01-22T11:30:10.113Z,14.80
2023-01-22T11:33:21.160Z,11.95
2023-01-22T11:36:27.248Z,12.73
2023-01-22T11:39:48.144Z,12.83
2023-01-22T11:42:50.094Z,14.68
2023-01-22T11:46:01.564Z,12.18
2023-01-22T11:49:03.610Z,11.93
2023-01-22T11:52:17.485Z,12.52
2023-01-22T11:55:48.675Z,12.95
2023-01-22T11:58:50.676Z,13.73
2023-01-22T12:02:25.161Z,15.50
2023-01-22T12:05:41.586Z,14.85
2023-01-22T12:08:49.595Z,13.88
2023-01-22T12:12:08.806Z,12.63
2023-01-22T12:15:13.623Z,14.25
2023-01-22T12:18:49.905Z,13.57
2023-01-22T12:21:58.134Z,14.63
2023-01-22T12:25:12.265Z,20.85
2023-01-22T12:28:16.659Z,16.00
2023-01-22T12:31:23.838Z,14.20
2023-01-22T12:34:29.340Z,14.63
2023-01-22T12:37:49.020Z,17.65
2023-01-22T12:41:03.038Z,19.35
2023-01-22T12:44:15.853Z,16.57
2023-01-22T12:47:21.512Z,16.52
2023-01-22T12:50:24.790Z,14.80
2023-01-22T12:53:28.785Z,15.90
2023-01-22T12:56:32.304Z,14.15
2023-01-22T12:59:43.163Z,14.00
2023-01-22T13:02:45.171Z,14.40
2023-01-22T13:05:47.251Z,13.35
2023-01-22T13:08:49.326Z,14.85
2023-01-22T13:11:51.368Z,15.73
2023-01-22T13:14:54.067Z,21.70
2023-01-22T13:18:06.458Z,19.85
2023-01-22T13:21:10.314Z,21.08
2023-01-22T13:24:14.319Z,27.10
2023-01-22T13:27:25.337Z,21.38
2023-01-22T13:30:28.475Z,18.70
2023-01-22T13:33:30.801Z,15.13
2023-01-22T13:36:32.837Z,17.77
2023-01-22T13:39:34.810Z,15.77
2023-01-22T13:42:37.277Z,18.88
2023-01-22T13:45:39.800Z,21.73
2023-01-22T13:48:42.181Z,19.73
2023-01-22T13:51:44.505Z,19.35
2023-01-22T13:54:52.261Z,22.73
2023-01-22T13:57:55.424Z,22.67
2023-01-22T14:00:57.544Z,23.30
2023-01-22T14:04:24.547Z,23.33
2023-01-22T14:07:36.847Z,20.63
2023-01-22T14:10:41.418Z,21.75
2023-01-22T14:13:44.367Z,19.83
2023-01-22T14:16:46.825Z,20.30
2023-01-22T14:19:48.973Z,20.92
2023-01-22T14:22:50.938Z,22.38
2023-01-22T14:25:54.019Z,21.47
2023-01-22T14:28:56.189Z,23.67
2023-01-22T14:31:58.350Z,24.25
2023-01-22T14:35:01.617Z,23.67
2023-01-22T14:38:03.594Z,22.13
2023-01-22T14:41:06.719Z,21.90
2023-01-22T14:44:08.753Z,20.85
2023-01-22T14:47:10.769Z,20.73
2023-01-22T14:50:12.771Z,20.17
2023-01-22T14:53:15.141Z,20.42
2023-01-22T14:56:17.146Z,21.20
2023-01-22T14:59:20.856Z,19.10
2023-01-22T15:02:23.151Z,18.52
2023-01-22T15:05:25.766Z,15.60
2023-01-22T15:08:27.802Z,17.02
2023-01-22T15:11:29.810Z,18.95
2023-01-22T15:14:31.750Z,19.02
2023-01-22T15:17:33.719Z,18.03
2023-01-22T15:20:35.749Z,19.70
2023-01-22T15:23:37.818Z,18.45
2023-01-22T15:26:39.891Z,19.33
2023-01-22T15:29:42.986Z,18.52
2023-01-22T15:32:45.016Z,18.05
2023-01-22T15:35:47.119Z,18.38
2023-01-22T15:38:49.099Z,18.17
2023-01-22T15:41:51.104Z,19.73
2023-01-22T15:44:53.084Z,20.52
2023-01-22T15:47:55.061Z,19.13
2023-01-22T15:51:05.682Z,21.80
2023-01-22T15:54:08.512Z,21.27
2023-01-22T15:57:10.535Z,22.10
2023-01-22T16:00:13.795Z,20.10
2023-01-22T16:03:15.797Z,18.00
2023-01-22T16:06:19.391Z,20.17
2023-01-22T16:09:21.361Z,21.73
2023-01-22T16:12:23.482Z,21.83
2023-01-22T16:15:25.519Z,20.23
2023-01-22T16:18:27.480Z,19.67
2023-01-22T16:21:29.496Z,18.25
2023-01-22T16:24:31.541Z,18.13
2023-01-22T16:27:33.553Z,18.50
2023-01-22T16:30:35.832Z,18.83
2023-01-22T16:33:38.738Z,16.38
2023-01-22T16:36:41.333Z,18.02
2023-01-22T16:39:43.382Z,17.48
2023-01-22T16:42:58.743Z,17.85
2023-01-22T16:46:00.889Z,17.83
2023-01-22T16:49:02.996Z,15.37
2023-01-22T16:52:21.425Z,15.60
2023-01-22T16:55:24.666Z,14.48
2023-01-22T16:58:26.666Z,17.30
2023-01-22T17:01:29.499Z,16.77
2023-01-22T17:04:31.792Z,15.23
2023-01-22T17:07:34.487Z,18.33
2023-01-22T17:10:36.635Z,17.77
2023-01-22T17:13:38.624Z,18.83
2023-01-22T17:16:40.685Z,19.05
2023-01-22T17:19:43.731Z,19.87
2023-01-22T17:22:45.769Z,19.92
2023-01-22T17:25:48.069Z,24.05
2023-01-22T17:28:50.136Z,21.33
2023-01-22T17:31:52.594Z,19.08
2023-01-22T17:34:54.646Z,20.42
2023-01-22T17:37:56.737Z,20.75
2023-01-22T17:41:04.283Z,21.45
2023-01-22T17:44:06.313Z,23.38
2023-01-22T17:47:08.382Z,21.73
2023-01-22T17:50:10.772Z,23.53
2023-01-22T17:53:13.142Z,21.95
2023-01-22T17:56:19.546Z,21.63
2023-01-22T17:59:22.424Z,21.47
2023-01-22T18:02:24.572Z,20.33
2023-01-22T18:05:26.786Z,20.25
2023-01-22T18:08:29.649Z,21.45
2023-01-22T18:11:33.067Z,19.63
2023-01-22T18:14:35.090Z,21.15
2023-01-22T18:17:37.117Z,19.17
2023-01-22T18:20:42.165Z,18.27
2023-01-22T18:23:44.227Z,17.80
2023-01-22T18:26:46.280Z,16.67
2023-01-22T18:29:48.305Z,16.87
2023-01-22T18:32:50.302Z,19.35
2023-01-22T18:35:55.427Z,16.52
2023-01-22T18:39:08.713Z,16.60
2023-01-22T18:42:10.776Z,16.10
2023-01-22T18:45:12.848Z,16.83
2023-01-22T18:48:16.041Z,17.40
2023-01-22T18:51:18.087Z,13.87
2023-01-22T18:54:20.147Z,13.82
2023-01-22T18:57:34.706Z,14.65
2023-01-22T19:00:41.868Z,14.27
2023-01-22T19:03:45.151Z,14.73
2023-01-22T19:06:51.802Z,16.35
2023-01-22T19:09:54.002Z,15.45
2023-01-22T19:12:56.152Z,12.50
2023-01-22T19:16:01.897Z,14.40
2023-01-22T19:19:07.778Z,14.18
2023-01-22T19:22:09.792Z,15.73
2023-01-22T19:25:11.783Z,16.70
2023-01-22T19:28:13.776Z,14.88
2023-01-22T19:31:23.646Z,14.10
2023-01-22T19:34:26.358Z,13.10
2023-01-22T19:37:29.507Z,12.80
2023-01-22T19:40:31.508Z,14.05
2023-01-22T19:43:33.517Z,14.82
2023-01-22T19:46:37.872Z,13.23
2023-01-22T19:49:40.006Z,13.60
2023-01-22T19:52:42.952Z,12.97
2023-01-22T19:55:45.011Z,13.75
2023-01-22T19:58:48.083Z,12.55
2023-01-22T20:01:50.494Z,14.17
2023-01-22T20:04:52.546Z,13.75
2023-01-22T20:07:56.228Z,14.82
2023-01-22T20:11:01.430Z,13.85
2023-01-22T20:14:03.467Z,14.55
2023-01-22T20:17:05.516Z,14.60
2023-01-22T20:20:07.957Z,14.52
2023-01-22T20:23:09.976Z,13.53
2023-01-22T20:26:12.346Z,14.73
2023-01-22T20:29:14.394Z,13.75
2023-01-22T20:32:16.457Z,17.07
2023-01-22T20:35:19.382Z,16.38
2023-01-22T20:38:21.475Z,17.80
2023-01-22T20:41:25.004Z,16.92
2023-01-22T20:44:27.128Z,16.48
2023-01-22T20:47:29.108Z,16.90
2023-01-22T20:50:31.045Z,16.17
2023-01-22T20:53:33.080Z,16.83
2023-01-22T20:56:35.639Z,18.80
2023-01-22T20:59:37.678Z,15.27
2023-01-22T21:02:39.634Z,15.60
2023-01-22T21:05:42.654Z,17.52
2023-01-22T21:08:47.673Z,14.10
2023-01-22T21:11:49.731Z,13.27
2023-01-22T21:14:55.326Z,15.85
2023-01-22T21:17:57.326Z,18.20
2023-01-22T21:20:59.349Z,17.30
2023-01-22T21:24:01.665Z,16.40
2023-01-22T21:27:03.684Z,17.45
2023-01-22T21:30:05.981Z,16.80
2023-01-22T21:33:08.009Z,17.67
2023-01-22T21:36:10.642Z,18.17
2023-01-22T21:39:14.978Z,17.23
2023-01-22T21:42:35.569Z,18.65
2023-01-22T21:45:59.101Z,18.95
2023-01-22T21:49:16.139Z,19.88
2023-01-22T21:52:18.158Z,20.02
2023-01-22T21:55:21.422Z,17.97
2023-01-22T21:58:23.504Z,18.33
2023-01-22T22:01:25.602Z,17.63
2023-01-22T22:04:27.938Z,19.70
2023-01-22T22:07:29.983Z,17.63
2023-01-22T22:10:31.965Z,18.05
2023-01-22T22:13:35.191Z,18.70
2023-01-22T22:16:37.355Z,17.70
2023-01-22T22:19:39.508Z,12.45
2023-01-22T22:22:41.516Z,16.80
2023-01-22T22:25:46.727Z,19.30
2023-01-22T22:28:48.720Z,13.85
2023-01-22T22:31:50.728Z,19.13
2023-01-22T22:34:52.753Z,20.07
2023-01-22T22:37:54.828Z,21.38
2023-01-22T22:40:58.186Z,17.23
2023-01-22T22:44:00.390Z,16.02
2023-01-22T22:47:02.439Z,22.40
2023-01-22T22:50:05.082Z,23.23
2023-01-22T22:53:07.110Z,25.65
2023-01-22T22:56:09.978Z,25.60
2023-01-22T22:59:12.219Z,28.63
2023-01-22T23:02:14.266Z,27.25
2023-01-22T23:05:16.286Z,26.97
2023-01-22T23:08:18.356Z,22.88
2023-01-22T23:11:21.469Z,25.17
2023-01-22T23:14:23.571Z,17.35
2023-01-22T23:17:25.584Z,20.23
2023-01-22T23:20:27.858Z,23.80
2023-01-22T23:23:29.886Z,23.83
2023-01-22T23:26:31.979Z,26.53
2023-01-22T23:29:33.966Z,23.90
2023-01-22T23:32:36.238Z,23.92
2023-01-22T23:35:38.278Z,21.90
2023-01-22T23:38:40.614Z,20.75
2023-01-22T23:41:42.680Z,23.02
2023-01-22T23:44:44.727Z,21.88
2023-01-22T23:47:46.734Z,20.70
2023-01-22T23:50:49.442Z,21.65
2023-01-22T23:53:52.133Z,20.45
2023-01-22T23:56:54.149Z,17.33
2023-01-22T23:59:56.233Z,16.98
